createdAt,value
2022-12-15T00:00:44.418Z,-1.10
2022-12-15T00:05:49.766Z,-1.20
2022-12-15T00:10:52.313Z,-1.20
2022-12-15T00:15:55.841Z,-1.30
2022-12-15T00:20:58.207Z,-1.30
2022-12-15T00:26:00.330Z,-1.30
2022-12-15T00:31:04.011Z,-1.30
2022-12-15T00:36:06.832Z,-1.30
2022-12-15T00:41:08.974Z,-1.20
2022-12-15T00:46:13.678Z,-1.20
2022-12-15T00:51:16.697Z,-1.10
2022-12-15T00:56:18.930Z,-1.10
2022-12-15T01:01:22.656Z,-1.10
2022-12-15T01:06:24.954Z,-1.10
2022-12-15T01:11:29.815Z,-1.00
2022-12-15T01:16:33.331Z,-1.00
2022-12-15T01:21:35.464Z,-1.00
2022-12-15T01:26:37.609Z,-0.90
2022-12-15T01:31:41.181Z,-0.80
2022-12-15T01:36:43.313Z,-0.80
2022-12-15T01:41:45.409Z,-0.70
2022-12-15T01:46:55.070Z,-0.70
2022-12-15T01:52:00.291Z,-0.60
2022-12-15T01:57:06.357Z,-0.60
2022-12-15T02:02:10.855Z,-0.70
2022-12-15T02:07:14.484Z,-0.70
2022-12-15T02:12:28.355Z,-0.70
2022-12-15T02:17:41.012Z,-0.70
2022-12-15T02:23:00.188Z,-0.80
2022-12-15T02:28:06.539Z,-0.80
2022-12-15T02:33:17.260Z,-0.90
2022-12-15T02:38:29.614Z,-0.90
2022-12-15T02:43:36.485Z,-0.90
2022-12-15T02:48:53.692Z,-0.90
2022-12-15T02:54:22.539Z,-0.80
2022-12-15T02:59:32.389Z,-0.70
2022-12-15T03:04:35.925Z,-0.60
2022-12-15T03:09:38.070Z,-0.50
2022-12-15T03:14:40.171Z,-0.50
2022-12-15T03:19:43.746Z,-0.40
2022-12-15T03:24:45.902Z,-0.30
2022-12-15T03:29:48.073Z,-0.20
2022-12-15T03:34:51.612Z,-0.20
2022-12-15T03:39:53.770Z,-0.10
2022-12-15T03:44:55.879Z,-0.10
2022-12-15T03:49:59.442Z,-0.10
2022-12-15T03:55:01.683Z,-0.10
2022-12-15T04:00:05.315Z,-0.10
2022-12-15T04:05:12.562Z,-0.20
2022-12-15T04:10:15.800Z,-0.30
2022-12-15T04:15:17.963Z,-0.30
2022-12-15T04:20:22.540Z,-0.30
2022-12-15T04:25:26.598Z,-0.30
2022-12-15T04:30:30.060Z,-0.30
2022-12-15T04:35:34.885Z,-0.30
2022-12-15T04:40:37.167Z,-0.40
2022-12-15T04:45:39.250Z,-0.40
2022-12-15T04:50:42.787Z,-0.40
2022-12-15T04:55:44.897Z,-0.50
2022-12-15T05:00:47.082Z,-0.50
2022-12-15T05:05:50.650Z,-0.50
2022-12-15T05:10:52.778Z,-0.60
2022-12-15T05:15:54.962Z,-0.60
2022-12-15T05:21:01.645Z,-0.60
2022-12-15T05:26:03.826Z,-0.60
2022-12-15T05:31:07.381Z,-0.50
2022-12-15T05:36:11.076Z,-0.50
2022-12-15T05:41:13.169Z,-0.50
2022-12-15T05:46:15.360Z,-0.50
2022-12-15T05:51:20.183Z,-0.50
2022-12-15T05:56:22.284Z,-0.50
2022-12-15T06:01:26.106Z,-0.50
2022-12-15T06:06:29.843Z,-0.50
2022-12-15T06:11:31.959Z,-0.50
2022-12-15T06:16:39.577Z,-0.40
2022-12-15T06:21:46.474Z,-0.30
2022-12-15T06:26:49.687Z,-0.20
2022-12-15T06:31:52.372Z,-0.20
2022-12-15T06:36:55.984Z,-0.20
2022-12-15T06:41:58.142Z,-0.20
2022-12-15T06:47:03.303Z,-0.30
2022-12-15T06:52:08.024Z,-0.30
2022-12-15T06:57:10.275Z,-0.20
2022-12-15T07:02:17.038Z,-0.10
2022-12-15T07:07:20.758Z,0.00
2022-12-15T07:12:22.844Z,0.10
2022-12-15T07:17:24.961Z,0.20
2022-12-15T07:22:30.086Z,0.30
2022-12-15T07:27:32.201Z,0.40
2022-12-15T07:32:34.534Z,0.60
2022-12-15T07:37:38.154Z,0.70
2022-12-15T07:42:40.426Z,0.80
2022-12-15T07:47:42.730Z,0.90
2022-12-15T07:52:46.444Z,1.00
2022-12-15T07:57:48.605Z,1.00
2022-12-15T08:02:50.963Z,1.10
2022-12-15T08:07:54.686Z,1.20
2022-12-15T08:12:56.861Z,1.20
2022-12-15T08:17:59.034Z,1.30
2022-12-15T08:23:02.685Z,1.40
2022-12-15T08:28:05.103Z,1.50
2022-12-15T08:33:07.408Z,1.60
2022-12-15T08:38:11.014Z,1.70
2022-12-15T08:43:13.205Z,1.90
2022-12-15T08:48:15.545Z,2.00
2022-12-15T08:53:41.443Z,2.20
2022-12-15T08:58:41.888Z,2.30
2022-12-15T09:03:44.301Z,2.40
2022-12-15T09:08:48.563Z,2.60
2022-12-15T09:13:52.841Z,2.80
2022-12-15T09:18:56.617Z,2.90
2022-12-15T09:24:01.938Z,2.90
2022-12-15T09:29:04.305Z,3.30
2022-12-15T09:34:06.498Z,3.60
2022-12-15T09:39:10.356Z,3.70
2022-12-15T09:44:14.797Z,3.90
2022-12-15T09:49:36.683Z,4.10
2022-12-15T09:54:41.142Z,4.40
2022-12-15T09:59:57.676Z,4.80
2022-12-15T10:05:12.299Z,5.20
2022-12-15T10:10:25.610Z,5.70
2022-12-15T10:15:33.459Z,6.10
2022-12-15T10:20:35.790Z,6.60
2022-12-15T10:25:39.848Z,7.00
2022-12-15T10:30:50.472Z,7.20
2022-12-15T10:35:53.882Z,7.20
2022-12-15T10:41:02.300Z,7.10
2022-12-15T10:46:11.502Z,7.00
2022-12-15T10:51:20.269Z,6.80
2022-12-15T10:56:32.769Z,6.90
2022-12-15T11:01:36.194Z,7.40
2022-12-15T11:06:42.711Z,7.80
2022-12-15T11:11:48.455Z,8.20
2022-12-15T11:16:55.376Z,8.50
2022-12-15T11:22:01.567Z,8.80
2022-12-15T11:27:15.457Z,9.10
2022-12-15T11:32:21.140Z,9.30
2022-12-15T11:37:40.166Z,9.60
2022-12-15T11:42:57.544Z,9.80
2022-12-15T11:48:09.992Z,9.90
2022-12-15T11:53:31.048Z,10.10
2022-12-15T11:58:50.845Z,10.40
2022-12-15T12:04:06.727Z,10.50
2022-12-15T12:09:24.545Z,10.50
2022-12-15T12:14:43.572Z,10.10
2022-12-15T12:19:50.931Z,9.80
2022-12-15T12:24:58.591Z,9.50
2022-12-15T12:30:05.193Z,9.30
2022-12-15T12:35:31.312Z,9.10
2022-12-15T12:40:52.078Z,8.90
2022-12-15T12:46:01.010Z,8.70
2022-12-15T12:51:28.926Z,8.70
2022-12-15T12:56:37.743Z,8.80
2022-12-15T13:01:41.500Z,9.00
2022-12-15T13:07:02.960Z,9.40
2022-12-15T13:12:49.820Z,9.70
2022-12-15T13:17:48.854Z,9.70
2022-12-15T13:22:52.141Z,9.70
2022-12-15T13:27:58.759Z,9.50
2022-12-15T13:33:18.541Z,9.40
2022-12-15T13:38:40.734Z,9.40
2022-12-15T13:43:48.212Z,9.20
2022-12-15T13:49:01.078Z,8.90
2022-12-15T13:54:13.407Z,8.60
2022-12-15T13:59:26.312Z,8.40
2022-12-15T14:04:30.026Z,8.20
2022-12-15T14:09:35.390Z,8.00
2022-12-15T14:14:45.756Z,7.70
2022-12-15T14:19:52.824Z,7.50
2022-12-15T14:25:00.891Z,7.20
2022-12-15T14:30:11.591Z,7.10
2022-12-15T14:35:22.786Z,7.00
2022-12-15T14:40:28.911Z,6.80
2022-12-15T14:45:32.456Z,6.60
2022-12-15T14:50:36.926Z,6.50
2022-12-15T14:55:40.351Z,6.40
2022-12-15T15:00:51.591Z,6.20
2022-12-15T15:06:00.017Z,6.10
2022-12-15T15:11:21.355Z,6.00
2022-12-15T15:16:23.702Z,5.90
2022-12-15T15:21:30.797Z,5.80
2022-12-15T15:26:33.009Z,5.80
2022-12-15T15:31:41.879Z,5.70
2022-12-15T15:36:45.978Z,5.60
2022-12-15T15:41:48.064Z,5.50
2022-12-15T15:46:52.387Z,5.50
2022-12-15T15:51:56.958Z,5.30
2022-12-15T15:56:59.171Z,5.20
2022-12-15T16:02:01.369Z,5.10
2022-12-15T16:07:05.611Z,5.00
2022-12-15T16:12:26.680Z,4.80
2022-12-15T16:17:28.842Z,4.70
2022-12-15T16:22:32.625Z,4.60
2022-12-15T16:27:34.741Z,4.40
2022-12-15T16:32:36.959Z,4.30
2022-12-15T16:37:42.425Z,4.30
2022-12-15T16:42:48.519Z,4.20
2022-12-15T16:47:52.192Z,4.20
2022-12-15T16:52:55.905Z,4.20
2022-12-15T16:58:00.541Z,4.20
2022-12-15T17:03:03.764Z,4.20
2022-12-15T17:08:13.882Z,4.20
2022-12-15T17:13:28.520Z,4.10
2022-12-15T17:18:34.577Z,4.10
2022-12-15T17:23:39.723Z,4.10
2022-12-15T17:28:41.949Z,4.10
2022-12-15T17:33:44.262Z,4.10
2022-12-15T17:38:57.798Z,4.00
2022-12-15T17:44:31.121Z,4.00
2022-12-15T17:49:22.177Z,4.00
2022-12-15T17:54:25.734Z,4.00
2022-12-15T17:59:27.856Z,3.90
2022-12-15T18:04:34.286Z,3.90
2022-12-15T18:09:38.375Z,3.80
2022-12-15T18:14:40.623Z,3.80
2022-12-15T18:19:42.740Z,3.80
2022-12-15T18:24:46.457Z,3.80
2022-12-15T18:29:48.652Z,3.80
2022-12-15T18:34:50.786Z,3.70
2022-12-15T18:39:57.112Z,3.70
2022-12-15T18:45:03.428Z,3.70
2022-12-15T18:50:06.168Z,3.70
2022-12-15T18:55:25.379Z,3.70
2022-12-15T19:00:36.833Z,3.60
2022-12-15T19:05:44.683Z,3.70
2022-12-15T19:10:57.346Z,3.70
2022-12-15T19:16:08.812Z,3.70
2022-12-15T19:21:23.242Z,3.70
2022-12-15T19:26:31.703Z,3.70
2022-12-15T19:31:39.499Z,3.70
2022-12-15T19:36:47.327Z,3.70
2022-12-15T19:42:12.982Z,3.80
2022-12-15T19:47:23.995Z,3.80
2022-12-15T19:52:32.357Z,3.80
2022-12-15T19:57:42.012Z,3.90
2022-12-15T20:02:52.817Z,3.90
2022-12-15T20:08:02.968Z,4.00
2022-12-15T20:13:20.241Z,4.00
2022-12-15T20:18:31.775Z,4.00
2022-12-15T20:23:55.889Z,4.00
2022-12-15T20:29:03.278Z,3.90
2022-12-15T20:34:14.560Z,3.90
2022-12-15T20:39:25.300Z,3.80
2022-12-15T20:44:29.156Z,3.80
2022-12-15T20:49:34.419Z,3.80
2022-12-15T20:54:38.005Z,3.80
2022-12-15T20:59:45.441Z,3.70
2022-12-15T21:04:53.075Z,3.60
2022-12-15T21:09:59.752Z,3.60
2022-12-15T21:15:20.227Z,3.60
2022-12-15T21:20:29.197Z,3.60
2022-12-15T21:25:37.821Z,3.60
2022-12-15T21:30:42.338Z,3.60
2022-12-15T21:35:46.446Z,3.70
2022-12-15T21:40:48.578Z,3.70
2022-12-15T21:45:52.157Z,3.70
2022-12-15T21:50:54.333Z,3.70
2022-12-15T21:55:56.619Z,3.70
2022-12-15T22:01:01.339Z,3.70
2022-12-15T22:06:03.571Z,3.70
2022-12-15T22:11:12.330Z,3.70
2022-12-15T22:16:16.860Z,3.70
2022-12-15T22:21:19.013Z,3.70
2022-12-15T22:26:23.282Z,3.70
2022-12-15T22:31:27.200Z,3.70
2022-12-15T22:36:29.368Z,3.70
2022-12-15T22:41:32.738Z,3.60
2022-12-15T22:46:36.705Z,3.70
2022-12-15T22:51:42.000Z,3.70
2022-12-15T22:56:44.275Z,3.70
2022-12-15T23:01:47.945Z,3.70
2022-12-15T23:06:50.337Z,3.70
2022-12-15T23:11:54.232Z,3.80
2022-12-15T23:16:58.661Z,3.80
2022-12-15T23:22:00.828Z,3.80
2022-12-15T23:27:03.012Z,3.80
2022-12-15T23:32:06.608Z,3.80
2022-12-15T23:37:08.662Z,3.80
2022-12-15T23:42:10.744Z,3.80
2022-12-15T23:47:14.251Z,3.80
2022-12-15T23:52:16.374Z,3.80
2022-12-15T23:57:18.545Z,3.80
